< < Back
Terminal Aerodrome Forecast


Current Version              Previous Versions:   1  2  3  4  5  6  7  8  9  

Terminal Aerodrome Forecast

173
FTUS42 KGSP 260526
TAFGSP
TAF
KGSP 260526Z 2606/2706 00000KT P6SM FEW200
     FM261400 04004KT P6SM FEW045
     FM262100 10005KT P6SM SCT045=

Latest METAR

600
SAUS70 KWBC 260800 RRF
MTRGSP
METAR KGSP 260753Z AUTO 00000KT 10SM CLR 23/22 A3011 RMK AO2 SLP183
T02330217


USA.gov is the U.S. government's official web portal to all federal, state and local government web resources and services.